Saskatoon John G. Diefenbaker International Airport
CYXE : now visible

Airfield :











YOU CAN JOIN US ON...

 
LOGIN :

Register | Disclaimer

   EN    FR    IT 

 









Legend :    VFR   Marginal VFR   IFR   Intensive IFR   Very Intensive IFR
Visi :
Ceiling :
>= 8 km
>= 3000ft
5 to 8 km
1000 to 3000 ft
1500m to 5 km
500 to 1000 ft
800 to 1500m
200 to 500 ft
< 800m
< 200 ft
Symbols :   Thunderstorms  Fog  Heavy snow  Heavy precipitations  Wind > 20 kt






- Airport Elevation : 1653 ft
- IATA code : YXE


CYXE - Saskatoon John G. Diefenbaker International

CURRENT METAR :
  • 080400Z 07009KT 10SM -TSRA OVC050CB 21/18 A2958 RMK CB8 SLP020 DENSITY ALT 3100FT

EXPIRED METARs :
  • 080356Z 07009KT 6SM -TSRA OVC050CB 21/18 A2959 RMK CB8 SLP021 DENSITY ALT 3200FT
  • 080300Z 04008KT 15SM OVC130 21/18 A2959 RMK AC8 CB + LTNG DIST SW SLP023 DENSITY ALT 3100FT
  • 080200Z 10006KT 15SM BKN130CB OVC250 23/18 A2960 RMK CB5CI3 CB + LTNG DIST NW SLP026 DENSITY ALT 3400FT

TAF AMD TAF CYXE
Valid from the 08 at 04:00 until the 09 at 00:00 UTC


080413Z 0804/0824 09010G20KT P6SM -TSRA OVC050CB
TEMPO 0804/0806 VRB15G25KT 21/2SM TSRA SCT012 OVC050CB
PROB30 0804/0806 VRB20G30KT 1SM +TSRA BR
FM080600 10012G22KT P6SM -SHRA SCT008 OVC040
TEMPO 0806/0813 5SM -SHRA BR BKN008 OVC040
PROB30 0806/0809 VRB15G25KT 11/2SM +TSRA BR BKN006 OVC030CB
FM081300 20015G25KT P6SM BKN025
TEMPO 0813/0819 P6SM -RA BKN015
FM081900 17014G24KT P6SM BKN030
TEMPO 0819/0824 P6SM -SHRA RMK NXT FCST BY 080600Z
CZWG FIR / North America



MET'MAP, your aeronautical weather chart ! - Copyright ORBIFLY December 2007 - Disclaimer

ORBIFLY MET'MAP TEAM :

Programming & Development : Alexandra Zaïnal
Concept & original design : Baudouin d'Aumeries
Assistance for programming : Marc-Olivier Méhu
Technical & hardware support : Manuel Goepfert

Contact : metmap@orbifly.com




SOURCES & CREDITS :

   NOAA       Earth
Advisory